Time;durP1;ratioP1;P1;durP2;ratioP2;P2;SDS_P1;SDS_P2;PMS_P1;PMS_P2;Temp;Humidity;BMP_temperature;BMP_pressure;BME280_temperature;BME280_humidity;BME280_pressure;Samples;Min_cycle;Max_cycle;Signal;HPM_P1;HPM_P2
2022/03/14 00:00:11;;;;;;;19.47;12.07;;;;;;;;;;5133384;27;20027;-54
2022/03/14 00:02:38;;;;;;;14.23;11.37;;;;;;;;;;5132109;27;20035;-50
2022/03/14 00:05:05;;;;;;;14.77;11.33;;;;;;;;;;5106207;28;20028;-53
2022/03/14 00:07:35;;;;;;;14.53;12.00;;;;;;;;;;5118895;28;20031;-53
2022/03/14 00:10:01;;;;;;;12.40;11.10;;;;;;;;;;5133298;28;20348;-54
2022/03/14 00:12:30;;;;;;;14.97;11.73;;;;;;;;;;5126080;28;20047;-47
2022/03/14 00:14:58;;;;;;;15.10;11.97;;;;;;;;;;5112753;28;20035;-48
2022/03/14 00:17:25;;;;;;;16.70;11.33;;;;;;;;;;5117646;28;20438;-48
2022/03/14 00:19:51;;;;;;;16.67;11.43;;;;;;;;;;5133096;28;20054;-48
2022/03/14 00:22:22;;;;;;;11.93;10.63;;;;;;;;;;5110082;28;20486;-48
2022/03/14 00:24:48;;;;;;;14.00;10.87;;;;;;;;;;5094174;28;20059;-47
2022/03/14 00:27:15;;;;;;;13.90;11.03;;;;;;;;;;5117908;27;20019;-49
2022/03/14 00:29:41;;;;;;;13.53;12.03;;;;;;;;;;5137133;27;20455;-48
2022/03/14 00:32:07;;;;;;;13.07;11.00;;;;;;;;;;5134948;27;20077;-50
2022/03/14 00:34:33;;;;;;;12.90;11.07;;;;;;;;;;5137169;27;20035;-51
2022/03/14 00:36:59;;;;;;;12.90;11.17;;;;;;;;;;5135900;27;20052;-51
2022/03/14 00:39:25;;;;;;;14.07;11.07;;;;;;;;;;5116855;28;20080;-52
2022/03/14 00:41:51;;;;;;;14.30;11.30;;;;;;;;;;5116559;28;20055;-52
2022/03/14 00:44:18;;;;;;;18.17;13.00;;;;;;;;;;5135676;27;20062;-52
2022/03/14 00:46:44;;;;;;;14.83;12.17;;;;;;;;;;5135659;27;20437;-53
2022/03/14 00:49:11;;;;;;;17.63;12.97;;;;;;;;;;5117275;27;20034;-52
2022/03/14 00:51:37;;;;;;;15.87;12.63;;;;;;;;;;5136821;27;20452;-52
2022/03/14 00:54:04;;;;;;;15.10;12.97;;;;;;;;;;5135461;27;20042;-53
2022/03/14 00:56:30;;;;;;;19.47;14.53;;;;;;;;;;5135528;27;20395;-51
2022/03/14 00:58:58;;;;;;;17.37;13.93;;;;;;;;;;5134315;27;20177;-53
2022/03/14 01:01:25;;;;;;;17.17;13.57;;;;;;;;;;5136861;27;20163;-49
2022/03/14 01:03:51;;;;;;;17.23;13.00;;;;;;;;;;5102011;28;20028;-52
2022/03/14 01:06:17;;;;;;;14.53;13.03;;;;;;;;;;5097637;28;20031;-52
2022/03/14 01:08:43;;;;;;;17.50;13.00;;;;;;;;;;5121985;27;20046;-51
2022/03/14 01:11:09;;;;;;;16.70;13.20;;;;;;;;;;5115957;27;20023;-52
2022/03/14 01:13:35;;;;;;;16.20;12.80;;;;;;;;;;5125192;27;20051;-51
2022/03/14 01:16:03;;;;;;;15.43;13.00;;;;;;;;;;5135308;27;20043;-48
2022/03/14 01:18:29;;;;;;;16.60;13.43;;;;;;;;;;5132101;27;20039;-56
2022/03/14 01:20:55;;;;;;;15.40;13.00;;;;;;;;;;5115735;28;20062;-47
2022/03/14 01:23:21;;;;;;;15.47;13.37;;;;;;;;;;5125338;27;20067;-51
2022/03/14 01:25:47;;;;;;;14.10;12.60;;;;;;;;;;5117821;27;20027;-51
2022/03/14 01:28:14;;;;;;;20.93;14.43;;;;;;;;;;5106968;28;20027;-48
2022/03/14 01:30:42;;;;;;;17.07;13.23;;;;;;;;;;5115840;28;20032;-55
2022/03/14 01:33:08;;;;;;;16.13;13.73;;;;;;;;;;5124709;27;20444;-51
2022/03/14 01:35:35;;;;;;;20.57;12.53;;;;;;;;;;5135904;27;20043;-51
2022/03/14 01:38:01;;;;;;;15.40;13.77;;;;;;;;;;5134263;27;20455;-49
2022/03/14 01:40:28;;;;;;;16.70;13.63;;;;;;;;;;5135975;27;20572;-51
2022/03/14 01:43:16;;;;;;;20.73;13.70;;;;;;;;;;5129612;27;20023;-51
2022/03/14 01:45:42;;;;;;;18.93;13.57;;;;;;;;;;5115457;28;20028;-50
2022/03/14 01:48:08;;;;;;;18.10;14.17;;;;;;;;;;5121776;27;20030;-52
2022/03/14 01:50:34;;;;;;;15.77;12.33;;;;;;;;;;5135808;27;20039;-51
2022/03/14 01:53:00;;;;;;;16.97;13.93;;;;;;;;;;5121311;27;20110;-49
2022/03/14 01:55:26;;;;;;;15.93;13.37;;;;;;;;;;5117020;27;20439;-48
2022/03/14 01:57:54;;;;;;;16.97;13.17;;;;;;;;;;5134143;27;20042;-48
2022/03/14 02:00:20;;;;;;;21.67;13.37;;;;;;;;;;5135530;27;20031;-49
2022/03/14 02:02:48;;;;;;;17.27;12.83;;;;;;;;;;5134033;27;20035;-48
2022/03/14 02:05:15;;;;;;;14.17;12.67;;;;;;;;;;5124972;27;20023;-51
2022/03/14 02:07:41;;;;;;;16.40;12.77;;;;;;;;;;5108561;27;20023;-54
2022/03/14 02:10:07;;;;;;;14.70;12.93;;;;;;;;;;5135344;27;20055;-48
2022/03/14 02:12:33;;;;;;;14.27;12.77;;;;;;;;;;5133979;27;20130;-48
2022/03/14 02:14:59;;;;;;;16.77;12.73;;;;;;;;;;5135558;27;20039;-49
2022/03/14 02:17:26;;;;;;;15.17;12.07;;;;;;;;;;5133933;27;20076;-54
2022/03/14 02:19:52;;;;;;;16.20;12.70;;;;;;;;;;5118806;27;20023;-53
2022/03/14 02:22:18;;;;;;;15.67;12.20;;;;;;;;;;5135169;27;20080;-50
2022/03/14 02:24:46;;;;;;;16.23;13.63;;;;;;;;;;5133510;27;20023;-54
2022/03/14 02:27:16;;;;;;;14.87;11.93;;;;;;;;;;5134885;27;20019;-51
2022/03/14 02:29:42;;;;;;;15.27;12.03;;;;;;;;;;5133818;27;20051;-52
2022/03/14 02:32:09;;;;;;;14.83;12.53;;;;;;;;;;5134917;27;20019;-52
2022/03/14 02:34:35;;;;;;;14.67;11.83;;;;;;;;;;5098128;28;20180;-50
2022/03/14 02:37:03;;;;;;;17.33;13.47;;;;;;;;;;5114285;28;20059;-52
2022/03/14 02:39:31;;;;;;;15.27;12.53;;;;;;;;;;5125029;27;20107;-53
2022/03/14 02:41:57;;;;;;;14.80;12.47;;;;;;;;;;5113817;27;20040;-50
2022/03/14 02:44:23;;;;;;;15.93;12.13;;;;;;;;;;5113773;27;20051;-52
2022/03/14 02:46:50;;;;;;;14.03;11.90;;;;;;;;;;5111231;27;20454;-52
2022/03/14 02:49:16;;;;;;;15.40;13.13;;;;;;;;;;5131430;27;20392;-52
2022/03/14 02:51:42;;;;;;;13.57;12.17;;;;;;;;;;5120091;27;20085;-53
2022/03/14 02:54:09;;;;;;;14.83;12.70;;;;;;;;;;5126079;27;20019;-55
2022/03/14 02:56:35;;;;;;;15.80;12.43;;;;;;;;;;5132953;27;20494;-50
2022/03/14 02:59:02;;;;;;;13.67;11.90;;;;;;;;;;5132392;27;20054;-51
2022/03/14 03:01:28;;;;;;;13.07;10.60;;;;;;;;;;5134447;27;20027;-52
2022/03/14 03:03:54;;;;;;;17.37;12.50;;;;;;;;;;5131669;27;20058;-53
2022/03/14 03:06:22;;;;;;;16.50;12.43;;;;;;;;;;5134109;27;20051;-50
2022/03/14 03:08:49;;;;;;;14.00;12.07;;;;;;;;;;5133232;27;20019;-53
2022/03/14 03:11:15;;;;;;;17.53;12.27;;;;;;;;;;5134115;27;20019;-52
2022/03/14 03:13:42;;;;;;;18.00;13.07;;;;;;;;;;5103481;28;20496;-49
2022/03/14 03:16:09;;;;;;;14.67;11.73;;;;;;;;;;5098567;28;20480;-50
2022/03/14 03:18:35;;;;;;;15.77;11.70;;;;;;;;;;5112238;28;20019;-48
2022/03/14 03:21:02;;;;;;;14.67;12.00;;;;;;;;;;5112866;28;20391;-48
2022/03/14 03:23:28;;;;;;;14.10;11.57;;;;;;;;;;5111836;28;20115;-50
2022/03/14 03:25:54;;;;;;;13.90;11.83;;;;;;;;;;5113546;27;20027;-50
2022/03/14 03:28:20;;;;;;;13.60;11.90;;;;;;;;;;5112454;28;20028;-49
2022/03/14 03:30:47;;;;;;;14.27;11.47;;;;;;;;;;5113350;28;20039;-51
2022/03/14 03:33:13;;;;;;;15.47;12.07;;;;;;;;;;5103830;28;20051;-49
2022/03/14 03:35:39;;;;;;;14.43;11.60;;;;;;;;;;5092841;28;20393;-48
2022/03/14 03:38:05;;;;;;;15.03;11.87;;;;;;;;;;5093611;28;20038;-48
2022/03/14 03:40:31;;;;;;;14.40;12.30;;;;;;;;;;5113227;28;20502;-49
2022/03/14 03:42:57;;;;;;;14.20;12.23;;;;;;;;;;5111505;28;20020;-50
2022/03/14 03:45:23;;;;;;;16.10;12.50;;;;;;;;;;5093043;28;20027;-53
2022/03/14 03:47:50;;;;;;;14.57;11.27;;;;;;;;;;5092983;28;20438;-50
2022/03/14 03:50:16;;;;;;;16.27;11.43;;;;;;;;;;5111582;28;20107;-54
2022/03/14 03:52:42;;;;;;;15.20;11.80;;;;;;;;;;5112755;28;20534;-53
2022/03/14 03:55:09;;;;;;;14.20;11.90;;;;;;;;;;5110851;28;20047;-49
2022/03/14 03:57:35;;;;;;;15.10;11.37;;;;;;;;;;5112731;28;20097;-53
2022/03/14 04:00:03;;;;;;;16.10;12.70;;;;;;;;;;5111753;28;20031;-51
2022/03/14 04:02:35;;;;;;;14.00;12.23;;;;;;;;;;5106902;28;20425;-48
2022/03/14 04:05:01;;;;;;;14.43;11.50;;;;;;;;;;5110241;28;20065;-54
2022/03/14 04:07:27;;;;;;;15.20;11.23;;;;;;;;;;5111943;28;20405;-48
2022/03/14 04:09:56;;;;;;;13.30;10.43;;;;;;;;;;5095115;28;20039;-49
2022/03/14 04:12:26;;;;;;;14.07;11.43;;;;;;;;;;5101453;28;20051;-51
2022/03/14 04:14:52;;;;;;;12.03;10.67;;;;;;;;;;5112622;28;20038;-50
2022/03/14 04:17:19;;;;;;;17.73;11.90;;;;;;;;;;5112652;28;20429;-49
2022/03/14 04:19:45;;;;;;;14.30;11.97;;;;;;;;;;5112378;28;20084;-51
2022/03/14 04:22:14;;;;;;;13.17;11.50;;;;;;;;;;5112678;28;20054;-50
2022/03/14 04:24:40;;;;;;;15.20;11.63;;;;;;;;;;5125637;28;20037;-52
2022/03/14 04:27:06;;;;;;;13.53;11.07;;;;;;;;;;5133240;28;20496;-53
2022/03/14 04:29:32;;;;;;;16.10;11.83;;;;;;;;;;5119797;28;20506;-54
2022/03/14 04:31:58;;;;;;;14.07;11.03;;;;;;;;;;5112482;28;20067;-54
2022/03/14 04:34:24;;;;;;;14.33;11.87;;;;;;;;;;5123068;28;20027;-53
2022/03/14 04:36:50;;;;;;;12.47;11.17;;;;;;;;;;5132280;28;20031;-50
2022/03/14 04:39:17;;;;;;;14.73;12.13;;;;;;;;;;5131575;28;20031;-52
2022/03/14 04:50:53;;;;;;;14.10;11.03;;;;;;;;;;5123040;28;20098;-49
2022/03/14 04:53:19;;;;;;;13.63;11.57;;;;;;;;;;5131150;28;20463;-49
2022/03/14 04:55:46;;;;;;;14.30;12.30;;;;;;;;;;5132698;28;20039;-49
2022/03/14 04:58:14;;;;;;;13.10;11.47;;;;;;;;;;5131546;28;20026;-50
2022/03/14 05:00:40;;;;;;;12.73;11.07;;;;;;;;;;5114862;28;20023;-50
2022/03/14 05:03:08;;;;;;;16.97;12.00;;;;;;;;;;5107240;28;20031;-51
2022/03/14 05:05:34;;;;;;;16.27;12.03;;;;;;;;;;5124539;28;20027;-48
2022/03/14 05:08:00;;;;;;;12.87;11.03;;;;;;;;;;5131247;28;20360;-49
2022/03/14 05:10:27;;;;;;;11.93;10.30;;;;;;;;;;5132747;28;20031;-48
2022/03/14 05:12:53;;;;;;;16.60;11.13;;;;;;;;;;5110313;28;20101;-49
2022/03/14 05:15:19;;;;;;;16.70;11.93;;;;;;;;;;5131678;27;20038;-50
2022/03/14 05:17:46;;;;;;;15.10;11.47;;;;;;;;;;5133102;27;20122;-49
2022/03/14 05:20:12;;;;;;;12.70;11.27;;;;;;;;;;5136301;27;20099;-50
2022/03/14 05:22:43;;;;;;;15.50;11.77;;;;;;;;;;5114904;27;20023;-51
2022/03/14 05:25:09;;;;;;;13.07;11.30;;;;;;;;;;5097147;28;20368;-53
2022/03/14 05:27:35;;;;;;;12.80;11.10;;;;;;;;;;5116675;27;20023;-54
2022/03/14 05:30:02;;;;;;;13.07;11.33;;;;;;;;;;5135992;27;20030;-52
2022/03/14 05:32:28;;;;;;;14.67;11.43;;;;;;;;;;5135009;27;20395;-49
2022/03/14 05:34:54;;;;;;;14.13;11.60;;;;;;;;;;5135917;27;20042;-51
2022/03/14 05:37:21;;;;;;;12.43;10.27;;;;;;;;;;5136059;27;20034;-54
2022/03/14 05:39:47;;;;;;;14.77;11.27;;;;;;;;;;5134709;27;20035;-48
2022/03/14 05:42:13;;;;;;;14.00;11.67;;;;;;;;;;5119274;27;20030;-50
2022/03/14 05:44:39;;;;;;;13.57;10.93;;;;;;;;;;5111338;27;20433;-53
2022/03/14 05:47:05;;;;;;;14.97;11.90;;;;;;;;;;5135893;27;20061;-50
2022/03/14 05:49:31;;;;;;;16.00;12.53;;;;;;;;;;5134624;27;20038;-51
2022/03/14 05:51:57;;;;;;;12.93;11.00;;;;;;;;;;5134783;27;20027;-53
2022/03/14 05:54:23;;;;;;;14.27;11.83;;;;;;;;;;5133875;27;20031;-52
2022/03/14 05:56:49;;;;;;;16.57;11.83;;;;;;;;;;5135654;27;20536;-49
2022/03/14 05:59:15;;;;;;;13.80;11.60;;;;;;;;;;5133782;27;20116;-49
2022/03/14 06:01:41;;;;;;;17.07;12.63;;;;;;;;;;5116967;27;20030;-49
2022/03/14 06:04:07;;;;;;;18.33;12.20;;;;;;;;;;5133074;27;20106;-48
2022/03/14 06:06:34;;;;;;;14.13;11.77;;;;;;;;;;5130576;27;20027;-54
2022/03/14 06:09:00;;;;;;;12.40;11.10;;;;;;;;;;5123059;27;20104;-50
2022/03/14 06:11:27;;;;;;;14.57;12.47;;;;;;;;;;5116542;27;20039;-52
2022/03/14 06:13:53;;;;;;;14.43;12.37;;;;;;;;;;5125324;27;20042;-51
2022/03/14 06:16:21;;;;;;;14.97;11.70;;;;;;;;;;5135045;27;20376;-49
2022/03/14 06:18:47;;;;;;;17.40;12.10;;;;;;;;;;5133607;27;20031;-50
2022/03/14 06:21:13;;;;;;;14.40;12.73;;;;;;;;;;5135138;27;20490;-51
2022/03/14 06:23:39;;;;;;;15.50;12.17;;;;;;;;;;5132983;27;20035;-48
2022/03/14 06:26:05;;;;;;;16.43;12.07;;;;;;;;;;5114327;27;20070;-48
2022/03/14 06:28:31;;;;;;;16.73;11.80;;;;;;;;;;5133415;27;20045;-48
2022/03/14 06:30:57;;;;;;;15.40;11.20;;;;;;;;;;5134963;27;20495;-48
2022/03/14 06:33:23;;;;;;;15.90;12.73;;;;;;;;;;5123485;27;20111;-49
2022/03/14 06:35:50;;;;;;;14.50;12.43;;;;;;;;;;5114126;28;20122;-51
2022/03/14 06:38:16;;;;;;;14.27;11.33;;;;;;;;;;5113828;27;20478;-50
2022/03/14 06:40:42;;;;;;;13.33;11.13;;;;;;;;;;5134052;27;20515;-50
2022/03/14 06:43:10;;;;;;;13.90;12.23;;;;;;;;;;5134719;27;20179;-50
2022/03/14 06:45:39;;;;;;;15.43;12.27;;;;;;;;;;5114536;27;20031;-48
2022/03/14 06:48:06;;;;;;;15.83;12.07;;;;;;;;;;5114126;28;20103;-49
2022/03/14 06:50:32;;;;;;;16.57;13.27;;;;;;;;;;5095661;28;20035;-48
2022/03/14 06:52:59;;;;;;;16.17;12.87;;;;;;;;;;5113630;27;20020;-47
2022/03/14 06:55:26;;;;;;;15.70;12.23;;;;;;;;;;5130512;27;20144;-51
2022/03/14 06:57:54;;;;;;;13.97;12.00;;;;;;;;;;5134308;27;20031;-54
2022/03/14 07:00:20;;;;;;;16.70;13.10;;;;;;;;;;5133168;27;20343;-52
2022/03/14 07:02:46;;;;;;;14.30;12.33;;;;;;;;;;5133325;27;20027;-53
2022/03/14 07:05:13;;;;;;;16.10;13.03;;;;;;;;;;5130745;27;20030;-54
2022/03/14 07:07:40;;;;;;;19.37;12.97;;;;;;;;;;5132120;27;20470;-54
2022/03/14 07:10:06;;;;;;;16.43;12.90;;;;;;;;;;5132872;27;20417;-54
2022/03/14 07:12:42;;;;;;;14.73;12.03;;;;;;;;;;5110184;27;20777;-50
2022/03/14 07:15:08;;;;;;;15.67;13.93;;;;;;;;;;5126386;27;20043;-49
2022/03/14 07:17:34;;;;;;;14.63;13.00;;;;;;;;;;5119232;27;20030;-50
2022/03/14 07:20:01;;;;;;;18.77;13.67;;;;;;;;;;5125664;27;20450;-53
2022/03/14 07:22:28;;;;;;;17.67;13.33;;;;;;;;;;5134472;27;20023;-53
2022/03/14 07:24:54;;;;;;;17.70;13.87;;;;;;;;;;5126559;27;20129;-53
2022/03/14 07:27:24;;;;;;;17.93;13.83;;;;;;;;;;5133372;27;20023;-52
2022/03/14 07:29:50;;;;;;;19.87;14.03;;;;;;;;;;5133357;27;20038;-53
2022/03/14 07:32:16;;;;;;;15.93;14.23;;;;;;;;;;5133021;27;20387;-49
2022/03/14 07:34:42;;;;;;;16.27;14.13;;;;;;;;;;5131981;27;20027;-50
2022/03/14 07:37:08;;;;;;;20.87;14.77;;;;;;;;;;5133387;27;20037;-53
2022/03/14 07:39:34;;;;;;;15.60;13.90;;;;;;;;;;5132769;27;20029;-49
2022/03/14 07:42:00;;;;;;;15.90;14.17;;;;;;;;;;5107523;27;20053;-48
2022/03/14 07:44:26;;;;;;;18.93;14.37;;;;;;;;;;5130490;27;20031;-53
2022/03/14 07:46:52;;;;;;;19.07;14.53;;;;;;;;;;5114242;27;20034;-52
2022/03/14 07:49:20;;;;;;;22.23;15.77;;;;;;;;;;5124611;27;20050;-51
2022/03/14 07:51:46;;;;;;;22.07;16.40;;;;;;;;;;5099425;28;20034;-53
2022/03/14 07:54:12;;;;;;;19.07;14.70;;;;;;;;;;5098210;28;20353;-52
2022/03/14 07:56:38;;;;;;;21.20;14.93;;;;;;;;;;5111598;28;20042;-50
2022/03/14 07:59:04;;;;;;;17.53;14.97;;;;;;;;;;5121819;27;20023;-54
2022/03/14 08:01:30;;;;;;;20.53;15.37;;;;;;;;;;5131487;27;20050;-53
2022/03/14 08:03:56;;;;;;;23.65;16.02;;;;;;;;;;5093399;28;20032;-55
2022/03/14 08:06:23;;;;;;;21.40;16.13;;;;;;;;;;5125314;27;20352;-52
2022/03/14 08:18:19;;;;;;;;;;;;;;;;;;5119761;28;20078;-54
2022/03/14 08:20:45;;;;;;;20.80;16.13;;;;;;;;;;5130641;28;20333;-50
2022/03/14 08:23:11;;;;;;;19.10;16.05;;;;;;;;;;5116473;28;20095;-51
2022/03/14 08:25:37;;;;;;;22.90;16.83;;;;;;;;;;5112178;28;20098;-52
2022/03/14 08:28:04;;;;;;;21.90;16.20;;;;;;;;;;5112596;28;20024;-49
2022/03/14 08:30:30;;;;;;;23.38;16.02;;;;;;;;;;5112806;28;20030;-48
2022/03/14 08:32:56;;;;;;;26.27;16.93;;;;;;;;;;5124862;28;20456;-51
2022/03/14 08:35:23;;;;;;;23.37;15.97;;;;;;;;;;5131953;28;20114;-49
2022/03/14 08:37:51;;;;;;;20.67;17.13;;;;;;;;;;5131863;28;20043;-49
2022/03/14 08:40:19;;;;;;;21.27;15.73;;;;;;;;;;5133334;28;20083;-48
2022/03/14 08:42:45;;;;;;;23.60;17.20;;;;;;;;;;5131647;28;20058;-49
2022/03/14 08:45:12;;;;;;;20.80;16.30;;;;;;;;;;5114529;28;20058;-52
2022/03/14 08:47:38;;;;;;;21.27;16.95;;;;;;;;;;5132425;27;20027;-53
2022/03/14 08:50:05;;;;;;;23.13;17.17;;;;;;;;;;5135661;27;20096;-52
2022/03/14 08:52:31;;;;;;;26.80;18.50;;;;;;;;;;5135046;27;20023;-53
2022/03/14 08:54:58;;;;;;;22.67;17.38;;;;;;;;;;5136495;27;20030;-53
2022/03/14 08:57:24;;;;;;;26.85;18.67;;;;;;;;;;5135499;27;20024;-53
2022/03/14 08:59:50;;;;;;;19.67;17.50;;;;;;;;;;5136824;27;20054;-50
2022/03/14 09:02:16;;;;;;;20.25;17.00;;;;;;;;;;5133937;27;20033;-52
2022/03/14 09:04:42;;;;;;;19.08;16.60;;;;;;;;;;5134633;27;20026;-50
2022/03/14 09:07:09;;;;;;;21.95;17.10;;;;;;;;;;5134990;27;20023;-52
2022/03/14 09:09:35;;;;;;;23.73;17.60;;;;;;;;;;5135758;27;20400;-50
2022/03/14 09:12:01;;;;;;;20.42;17.30;;;;;;;;;;5116262;27;20023;-52
2022/03/14 09:14:27;;;;;;;21.48;17.63;;;;;;;;;;5136127;27;20027;-49
2022/03/14 09:16:53;;;;;;;21.88;18.38;;;;;;;;;;5134787;27;20112;-48
2022/03/14 09:19:19;;;;;;;23.00;18.08;;;;;;;;;;5135443;27;20027;-51
2022/03/14 09:21:46;;;;;;;19.08;16.92;;;;;;;;;;5116209;27;20026;-51
2022/03/14 09:24:12;;;;;;;22.13;17.88;;;;;;;;;;5117554;27;20055;-52
2022/03/14 09:26:38;;;;;;;19.50;17.40;;;;;;;;;;5135192;27;20086;-51
2022/03/14 09:29:06;;;;;;;20.98;17.42;;;;;;;;;;5125894;27;20110;-49
2022/03/14 09:31:32;;;;;;;24.85;17.33;;;;;;;;;;5127146;27;20473;-50
2022/03/14 09:33:58;;;;;;;20.30;17.90;;;;;;;;;;5134237;27;20026;-49
2022/03/14 09:36:24;;;;;;;23.08;17.85;;;;;;;;;;5116863;27;20053;-52
2022/03/14 09:38:51;;;;;;;20.42;17.20;;;;;;;;;;5134184;27;20038;-49
2022/03/14 09:41:20;;;;;;;19.05;17.05;;;;;;;;;;5134319;27;20479;-52
2022/03/14 09:43:47;;;;;;;22.77;17.65;;;;;;;;;;5116133;27;20023;-50
2022/03/14 09:46:14;;;;;;;23.58;17.25;;;;;;;;;;5117090;27;20031;-48
2022/03/14 09:48:44;;;;;;;21.73;16.90;;;;;;;;;;5134231;27;20027;-48
2022/03/14 09:51:10;;;;;;;20.73;17.92;;;;;;;;;;5133445;27;20130;-49
2022/03/14 09:53:37;;;;;;;22.33;17.67;;;;;;;;;;5115790;27;20031;-49
2022/03/14 09:56:03;;;;;;;20.95;17.83;;;;;;;;;;5135578;27;20359;-50
2022/03/14 09:58:29;;;;;;;20.15;14.90;;;;;;;;;;5130689;27;20027;-52
2022/03/14 10:00:55;;;;;;;16.23;14.55;;;;;;;;;;5135209;27;20106;-47
2022/03/14 10:03:22;;;;;;;16.52;14.48;;;;;;;;;;5103410;28;20111;-52
2022/03/14 10:05:49;;;;;;;15.15;13.65;;;;;;;;;;5123680;27;20035;-51
2022/03/14 10:08:15;;;;;;;14.93;13.25;;;;;;;;;;5133953;27;20352;-51
2022/03/14 10:10:43;;;;;;;17.33;13.50;;;;;;;;;;5135244;27;20104;-53
2022/03/14 10:13:11;;;;;;;17.05;13.30;;;;;;;;;;5133887;27;20479;-48
2022/03/14 10:15:40;;;;;;;16.45;14.60;;;;;;;;;;5134990;27;20039;-50
2022/03/14 10:18:15;;;;;;;17.33;14.68;;;;;;;;;;5133611;27;20114;-49
2022/03/14 10:20:55;;;;;;;18.80;14.60;;;;;;;;;;5135240;27;20183;-51
2022/03/14 10:23:36;;;;;;;20.15;15.40;;;;;;;;;;5133859;27;20337;-51
2022/03/14 10:26:05;;;;;;;20.35;16.20;;;;;;;;;;5131062;27;20512;-52
2022/03/14 10:28:31;;;;;;;17.15;15.40;;;;;;;;;;5133511;27;20023;-50
2022/03/14 10:31:01;;;;;;;19.98;15.57;;;;;;;;;;5116277;27;20019;-52
2022/03/14 10:33:28;;;;;;;18.90;16.40;;;;;;;;;;5121363;27;20026;-53
2022/03/14 10:35:56;;;;;;;17.35;15.50;;;;;;;;;;5114249;28;20104;-49
2022/03/14 10:38:23;;;;;;;23.38;17.42;;;;;;;;;;5124869;27;20094;-49
2022/03/14 10:40:51;;;;;;;19.17;17.13;;;;;;;;;;5134762;27;20034;-48
2022/03/14 10:43:23;;;;;;;18.00;16.10;;;;;;;;;;5104888;28;20377;-50
2022/03/14 10:45:49;;;;;;;20.35;16.55;;;;;;;;;;5113960;28;20047;-50
2022/03/14 10:48:15;;;;;;;19.38;15.05;;;;;;;;;;5123564;27;20106;-49
2022/03/14 10:50:42;;;;;;;17.42;15.25;;;;;;;;;;5134381;27;20076;-49
2022/03/14 10:53:11;;;;;;;18.92;15.25;;;;;;;;;;5132633;27;20028;-50
2022/03/14 10:55:47;;;;;;;18.23;15.13;;;;;;;;;;5134101;27;20043;-50
2022/03/14 10:58:23;;;;;;;16.80;14.75;;;;;;;;;;5132076;27;20558;-49
2022/03/14 11:00:53;;;;;;;16.85;15.07;;;;;;;;;;5134559;27;20099;-51
2022/03/14 11:03:28;;;;;;;18.23;15.90;;;;;;;;;;5132512;27;20031;-49
2022/03/14 11:06:04;;;;;;;19.27;15.25;;;;;;;;;;5112925;27;20041;-53
2022/03/14 11:08:59;;;;;;;17.52;15.70;;;;;;;;;;5114168;27;20054;-48
2022/03/14 11:11:25;;;;;;;17.77;15.88;;;;;;;;;;5130211;27;20084;-50
2022/03/14 11:13:53;;;;;;;18.92;16.42;;;;;;;;;;5131472;27;20026;-53
2022/03/14 11:16:18;;;;;;;18.88;15.95;;;;;;;;;;5114992;27;20566;-47
2022/03/14 11:18:45;;;;;;;18.65;16.05;;;;;;;;;;5132473;27;20031;-48
2022/03/14 11:21:13;;;;;;;20.83;17.98;;;;;;;;;;5130191;27;20055;-47
2022/03/14 11:23:41;;;;;;;19.40;17.27;;;;;;;;;;5119747;27;20039;-52
2022/03/14 11:26:10;;;;;;;19.42;17.33;;;;;;;;;;5113062;28;20036;-52
2022/03/14 11:28:36;;;;;;;19.02;16.10;;;;;;;;;;5123471;27;20051;-50
2022/03/14 11:31:02;;;;;;;19.23;15.88;;;;;;;;;;5113150;28;20466;-54
2022/03/14 11:33:30;;;;;;;17.52;15.57;;;;;;;;;;5120184;27;20023;-53
2022/03/14 11:35:57;;;;;;;19.58;16.25;;;;;;;;;;5115086;27;20039;-54
2022/03/14 11:38:23;;;;;;;19.65;15.35;;;;;;;;;;5132320;27;20079;-52
2022/03/14 11:40:51;;;;;;;18.27;15.95;;;;;;;;;;5133473;27;20110;-54
2022/03/14 11:43:17;;;;;;;19.02;16.35;;;;;;;;;;5131963;27;20152;-51
2022/03/14 11:45:44;;;;;;;18.35;16.42;;;;;;;;;;5133394;27;20023;-52
2022/03/14 11:48:10;;;;;;;18.88;16.55;;;;;;;;;;5126855;27;20030;-54
2022/03/14 11:50:43;;;;;;;19.83;16.45;;;;;;;;;;5094462;28;20118;-50
2022/03/14 11:53:09;;;;;;;18.52;15.85;;;;;;;;;;5116273;27;20095;-52
2022/03/14 11:55:35;;;;;;;17.70;15.68;;;;;;;;;;5133110;27;20046;-51
2022/03/14 11:58:01;;;;;;;18.52;16.55;;;;;;;;;;5131829;27;20019;-51
2022/03/14 12:00:27;;;;;;;19.65;17.17;;;;;;;;;;5113153;28;20080;-52
2022/03/14 12:02:53;;;;;;;20.50;16.65;;;;;;;;;;5132004;27;20031;-49
2022/03/14 12:05:22;;;;;;;19.67;15.68;;;;;;;;;;5130416;27;20031;-50
2022/03/14 12:07:49;;;;;;;21.35;16.13;;;;;;;;;;5133529;27;20543;-50
2022/03/14 12:10:31;;;;;;;18.83;15.65;;;;;;;;;;5113697;28;20077;-51
2022/03/14 12:13:04;;;;;;;20.52;15.75;;;;;;;;;;5112744;28;20430;-49
2022/03/14 12:15:43;;;;;;;19.30;17.02;;;;;;;;;;5125560;28;20092;-53
2022/03/14 12:18:25;;;;;;;20.88;16.95;;;;;;;;;;5126352;28;20046;-53
2022/03/14 12:20:55;;;;;;;19.55;16.88;;;;;;;;;;5133002;28;20027;-54
2022/03/14 12:23:26;;;;;;;18.90;16.98;;;;;;;;;;5134706;27;20106;-49
2022/03/14 12:25:52;;;;;;;20.23;16.77;;;;;;;;;;5137242;27;20044;-50
2022/03/14 12:28:24;;;;;;;19.23;17.13;;;;;;;;;;5135444;27;20023;-52
2022/03/14 12:30:50;;;;;;;19.88;16.52;;;;;;;;;;5137403;27;20091;-51
2022/03/14 12:33:32;;;;;;;20.58;16.80;;;;;;;;;;5135906;27;20019;-52
2022/03/14 12:36:01;;;;;;;19.73;16.20;;;;;;;;;;5118326;27;20440;-51
2022/03/14 12:38:27;;;;;;;20.52;16.33;;;;;;;;;;5115299;27;20523;-51
2022/03/14 12:40:56;;;;;;;23.13;17.15;;;;;;;;;;5116284;28;20028;-52
2022/03/14 12:43:27;;;;;;;20.88;17.63;;;;;;;;;;5097627;27;20016;-48
2022/03/14 12:45:55;;;;;;;21.70;16.40;;;;;;;;;;5136841;27;20027;-52
2022/03/14 12:48:25;;;;;;;19.90;17.20;;;;;;;;;;5135549;27;20388;-50
2022/03/14 12:50:51;;;;;;;18.92;16.45;;;;;;;;;;5116307;28;20028;-49
2022/03/14 12:53:37;;;;;;;20.15;16.15;;;;;;;;;;5115418;27;20067;-49
2022/03/14 12:56:03;;;;;;;19.17;16.23;;;;;;;;;;5113989;27;20035;-52
2022/03/14 12:58:30;;;;;;;23.23;17.27;;;;;;;;;;5131227;27;20072;-51
2022/03/14 13:00:57;;;;;;;20.50;17.17;;;;;;;;;;5117921;27;20031;-53
2022/03/14 13:03:25;;;;;;;19.35;17.08;;;;;;;;;;5118717;27;20403;-51
2022/03/14 13:05:51;;;;;;;18.60;16.23;;;;;;;;;;5122172;27;20495;-50
2022/03/14 13:08:17;;;;;;;21.80;17.85;;;;;;;;;;5124242;27;20026;-53
2022/03/14 13:10:43;;;;;;;19.58;15.93;;;;;;;;;;5118376;27;20047;-51
2022/03/14 13:13:10;;;;;;;21.35;17.25;;;;;;;;;;5114484;27;20476;-51
2022/03/14 13:15:42;;;;;;;19.77;16.67;;;;;;;;;;5097372;28;20123;-51
2022/03/14 13:18:19;;;;;;;18.55;15.85;;;;;;;;;;5097213;28;20043;-49
2022/03/14 13:20:45;;;;;;;18.05;16.15;;;;;;;;;;5134553;27;20027;-52
2022/03/14 13:23:15;;;;;;;21.50;17.40;;;;;;;;;;5136156;27;20027;-50
2022/03/14 13:25:46;;;;;;;17.23;15.40;;;;;;;;;;5134879;27;20046;-48
2022/03/14 13:28:12;;;;;;;18.23;16.23;;;;;;;;;;5115476;27;20472;-53
2022/03/14 13:30:40;;;;;;;19.48;17.13;;;;;;;;;;5116560;27;20080;-49
2022/03/14 13:33:17;;;;;;;22.52;17.58;;;;;;;;;;5135428;27;20043;-50
2022/03/14 13:35:44;;;;;;;19.00;16.58;;;;;;;;;;5134393;27;20118;-49
2022/03/14 13:38:10;;;;;;;18.63;16.63;;;;;;;;;;5135874;27;20023;-50
2022/03/14 13:40:44;;;;;;;17.85;16.00;;;;;;;;;;5132277;27;20047;-52
2022/03/14 13:43:10;;;;;;;20.40;18.20;;;;;;;;;;5134817;27;20031;-49
2022/03/14 13:45:36;;;;;;;18.63;16.58;;;;;;;;;;5134600;27;20031;-49
2022/03/14 13:48:03;;;;;;;22.10;17.92;;;;;;;;;;5135640;27;20015;-51
2022/03/14 13:50:29;;;;;;;19.85;16.25;;;;;;;;;;5134364;27;20106;-49
2022/03/14 13:52:55;;;;;;;20.50;17.48;;;;;;;;;;5117165;27;20019;-51
2022/03/14 13:55:22;;;;;;;21.95;18.30;;;;;;;;;;5116377;27;20031;-52
2022/03/14 13:57:48;;;;;;;19.83;16.95;;;;;;;;;;5101715;28;20068;-53
2022/03/14 14:00:14;;;;;;;22.27;17.95;;;;;;;;;;5126619;27;20038;-51
2022/03/14 14:02:41;;;;;;;19.55;17.48;;;;;;;;;;5134913;27;20131;-52
2022/03/14 14:05:08;;;;;;;20.90;18.02;;;;;;;;;;5103396;28;20034;-48
2022/03/14 14:07:34;;;;;;;19.50;17.35;;;;;;;;;;5095611;27;20020;-53
2022/03/14 14:10:01;;;;;;;20.35;17.40;;;;;;;;;;5131030;27;20019;-48
2022/03/14 14:12:27;;;;;;;23.05;18.27;;;;;;;;;;5116676;27;20092;-49
2022/03/14 14:14:57;;;;;;;21.95;18.05;;;;;;;;;;5133848;27;20043;-50
2022/03/14 14:17:24;;;;;;;22.20;17.25;;;;;;;;;;5116579;27;20120;-51
2022/03/14 14:20:02;;;;;;;19.48;17.48;;;;;;;;;;5124906;27;20530;-49
2022/03/14 14:22:32;;;;;;;22.42;17.38;;;;;;;;;;5114414;28;20024;-50
2022/03/14 14:24:58;;;;;;;19.30;17.27;;;;;;;;;;5124047;27;20026;-51
2022/03/14 14:27:26;;;;;;;19.45;16.30;;;;;;;;;;5135054;27;20030;-52
2022/03/14 14:29:59;;;;;;;21.63;18.00;;;;;;;;;;5106376;28;20088;-50
2022/03/14 14:32:26;;;;;;;19.52;17.35;;;;;;;;;;5114428;28;20499;-48
2022/03/14 14:34:54;;;;;;;20.13;16.77;;;;;;;;;;5123718;27;20031;-50
2022/03/14 14:37:21;;;;;;;20.05;17.13;;;;;;;;;;5134561;27;20156;-54